Time;durP1;ratioP1;P1;durP2;ratioP2;P2;SDS_P1;SDS_P2;PMS_P1;PMS_P2;Temp;Humidity;BMP_temperature;BMP_pressure;BME280_temperature;BME280_humidity;BME280_pressure;Samples;Min_cycle;Max_cycle;Signal;HPM_P1;HPM_P2
2022/10/17 00:01:20;;;;;;;;;;;;;;;14.97;71.24;101324.03;4977475;28;20297;-62
2022/10/17 00:03:46;;;;;;;;;;;;;;;14.93;71.46;101327.66;4977557;28;20008;-63
2022/10/17 00:06:13;;;;;;;;;;;;;;;14.82;71.04;101319.09;4977481;28;19964;-62
2022/10/17 00:08:39;;;;;;;;;;;;;;;14.78;71.34;101317.44;4976633;28;20297;-64
2022/10/17 00:11:13;;;;;;;;;;;;;;;14.79;71.04;101324.47;4976813;28;19933;-64
2022/10/17 00:13:38;;;;;;;;;;;;;;;14.63;69.90;101333.66;4976427;28;19922;-64
2022/10/17 00:16:04;;;;;;;;;;;;;;;14.64;70.79;101348.63;4976782;28;20274;-64
2022/10/17 00:18:29;;;;;;;;;;;;;;;14.60;71.08;101339.91;4976510;28;19918;-63
2022/10/17 00:20:55;;;;;;;;;;;;;;;14.59;70.97;101342.59;4976952;28;19922;-63
2022/10/17 00:23:20;;;;;;;;;;;;;;;14.42;69.96;101341.16;4977103;28;20013;-63
2022/10/17 00:25:45;;;;;;;;;;;;;;;14.38;69.91;101343.91;4976743;28;20001;-63
2022/10/17 00:28:12;;;;;;;;;;;;;;;14.27;69.76;101342.34;4977941;28;20004;-62
2022/10/17 00:30:37;;;;;;;;;;;;;;;14.20;70.03;101350.44;4975730;28;19961;-62
2022/10/17 00:33:03;;;;;;;;;;;;;;;14.13;70.38;101354.16;4976210;28;19965;-62
2022/10/17 00:35:28;;;;;;;;;;;;;;;14.14;70.80;101350.59;4976700;28;19914;-62
2022/10/17 00:37:53;;;;;;;;;;;;;;;14.05;70.53;101349.88;4976529;28;19928;-62
2022/10/17 00:40:19;;;;;;;;;;;;;;;14.09;71.02;101358.63;4976631;28;19929;-63
2022/10/17 00:42:44;;;;;;;;;;;;;;;14.10;71.50;101362.13;4976319;28;19918;-63
2022/10/17 00:45:18;;;;;;;;;;;;;;;14.12;71.10;101358.53;4975842;28;19929;-62
2022/10/17 00:47:46;;;;;;;;;;;;;;;14.10;70.77;101349.78;4975976;28;19924;-62
2022/10/17 00:50:12;;;;;;;;;;;;;;;14.15;71.27;101352.31;4976420;28;19914;-63
2022/10/17 00:52:37;;;;;;;;;;;;;;;14.14;70.33;101358.53;4976060;28;19976;-62
2022/10/17 00:55:09;;;;;;;;;;;;;;;14.11;70.00;101351.50;4975454;28;19922;-63
2022/10/17 00:57:34;;;;;;;;;;;;;;;14.10;70.51;101362.13;4975759;28;19918;-64
2022/10/17 01:00:05;;;;;;;;;;;;;;;14.01;70.62;101366.69;4975504;28;19945;-63
2022/10/17 01:02:30;;;;;;;;;;;;;;;13.98;71.10;101366.75;4976174;28;19925;-62
2022/10/17 01:04:58;;;;;;;;;;;;;;;13.97;70.78;101370.31;4975833;28;19922;-62
2022/10/17 01:07:23;;;;;;;;;;;;;;;13.96;70.77;101365.94;4976233;28;19918;-61
2022/10/17 01:09:49;;;;;;;;;;;;;;;14.07;71.82;101378.03;4975776;28;19921;-62
2022/10/17 01:12:32;;;;;;;;;;;;;;;14.13;71.64;101380.56;4976071;28;19921;-62
2022/10/17 01:15:07;;;;;;;;;;;;;;;14.15;70.84;101379.63;4974662;28;19961;-62
2022/10/17 01:17:35;;;;;;;;;;;;;;;14.13;71.92;101375.28;4972327;28;20393;-63
2022/10/17 01:20:04;;;;;;;;;;;;;;;14.16;71.49;101367.28;4975676;28;19914;-64
2022/10/17 01:22:58;;;;;;;;;;;;;;;14.15;71.87;101376.09;4975777;28;20436;-62
2022/10/17 01:25:29;;;;;;;;;;;;;;;14.15;72.29;101384.03;4920936;28;19926;-62
2022/10/17 01:28:13;;;;;;;;;;;;;;;14.15;71.73;101391.97;4956103;29;19924;-64
2022/10/17 01:30:57;;;;;;;;;;;;;;;14.11;70.78;101398.22;4956050;29;19961;-63
2022/10/17 01:33:41;;;;;;;;;;;;;;;14.10;70.95;101404.41;4962439;28;19926;-63
2022/10/17 01:36:11;;;;;;;;;;;;;;;14.15;71.12;101394.59;4975007;28;20415;-63
2022/10/17 01:38:48;;;;;;;;;;;;;;;14.12;71.10;101374.38;4975404;28;20285;-63
2022/10/17 01:41:26;;;;;;;;;;;;;;;14.05;70.25;101378.94;4990069;28;20305;-63
2022/10/17 01:43:58;;;;;;;;;;;;;;;14.04;70.70;101389.53;4974772;28;20365;-63
2022/10/17 01:46:33;;;;;;;;;;;;;;;13.98;70.24;101392.31;4974840;28;20294;-62
2022/10/17 01:49:00;;;;;;;;;;;;;;;13.90;70.69;101395.09;4975305;28;19925;-62
2022/10/17 01:51:46;;;;;;;;;;;;;;;13.87;71.87;101391.66;4974712;28;19933;-61
2022/10/17 01:54:15;;;;;;;;;;;;;;;13.83;73.25;101398.75;4956023;28;20299;-63
2022/10/17 01:56:41;;;;;;;;;;;;;;;13.88;73.18;101404.81;4956206;29;19918;-63
2022/10/17 01:59:16;;;;;;;;;;;;;;;13.88;72.90;101404.81;4973072;28;19914;-62
2022/10/17 02:01:43;;;;;;;;;;;;;;;13.84;71.60;101403.13;4975687;28;19964;-62
2022/10/17 02:04:09;;;;;;;;;;;;;;;13.84;71.10;101405.78;4974938;28;19921;-62
2022/10/17 02:06:35;;;;;;;;;;;;;;;13.75;70.41;101395.38;4976431;28;19926;-62
2022/10/17 02:09:01;;;;;;;;;;;;;;;13.70;70.17;101395.47;4974915;28;19918;-63
2022/10/17 02:11:26;;;;;;;;;;;;;;;13.68;69.83;101404.31;4975523;28;20370;-63
2022/10/17 02:14:10;;;;;;;;;;;;;;;13.66;70.07;101407.00;5006445;28;19914;-63
2022/10/17 02:16:35;;;;;;;;;;;;;;;13.59;70.25;101407.13;4974193;28;20423;-63
2022/10/17 02:19:04;;;;;;;;;;;;;;;13.54;70.98;101400.16;4974915;28;20008;-63
2022/10/17 02:21:29;;;;;;;;;;;;;;;13.57;70.69;101414.22;4975161;28;19917;-63
2022/10/17 02:24:03;;;;;;;;;;;;;;;13.53;70.46;101409.00;4974682;28;20433;-63
2022/10/17 02:26:29;;;;;;;;;;;;;;;13.51;70.62;101418.69;4974742;28;19925;-63
2022/10/17 02:29:16;;;;;;;;;;;;;;;13.46;70.15;101424.97;4974665;28;19918;-63
2022/10/17 02:31:45;;;;;;;;;;;;;;;13.48;70.62;101418.72;4977424;28;19918;-62
2022/10/17 02:34:18;;;;;;;;;;;;;;;13.53;70.46;101424.84;4978884;28;19921;-62
2022/10/17 02:36:50;;;;;;;;;;;;;;;13.44;70.85;101430.25;4978937;28;20362;-62
2022/10/17 02:39:17;;;;;;;;;;;;;;;13.50;70.58;101432.78;4978320;28;19969;-62
2022/10/17 02:41:43;;;;;;;;;;;;;;;13.51;70.45;101439.81;4978273;28;19917;-62
2022/10/17 02:44:09;;;;;;;;;;;;;;;13.46;70.51;101435.53;4978604;28;20409;-62
2022/10/17 02:46:37;;;;;;;;;;;;;;;13.45;70.34;101425.88;4978643;28;20401;-63
2022/10/17 02:49:08;;;;;;;;;;;;;;;13.43;69.38;101433.78;4978550;28;19918;-63
2022/10/17 02:51:52;;;;;;;;;;;;;;;13.37;69.43;101431.28;4978954;28;19974;-63
2022/10/17 02:54:19;;;;;;;;;;;;;;;13.23;69.15;101443.81;4978549;28;19914;-64
2022/10/17 02:56:53;;;;;;;;;;;;;;;13.17;69.82;101446.53;4977702;28;19922;-63
2022/10/17 02:59:20;;;;;;;;;;;;;;;13.16;69.45;101452.66;4979031;28;20425;-63
2022/10/17 03:01:45;;;;;;;;;;;;;;;13.14;69.30;101454.47;4977983;28;19949;-63
2022/10/17 03:04:12;;;;;;;;;;;;;;;12.93;69.61;101451.25;4978666;28;19918;-62
2022/10/17 03:06:38;;;;;;;;;;;;;;;13.04;69.91;101461.66;4977716;28;19917;-62
2022/10/17 03:09:04;;;;;;;;;;;;;;;13.07;70.43;101467.75;4977348;28;19922;-62
2022/10/17 03:11:29;;;;;;;;;;;;;;;13.09;70.06;101462.47;4977995;28;19986;-62
2022/10/17 03:13:55;;;;;;;;;;;;;;;13.06;69.21;101458.09;4977403;28;19926;-62
2022/10/17 03:16:20;;;;;;;;;;;;;;;13.04;69.02;101459.88;4977081;28;19968;-63
2022/10/17 03:18:45;;;;;;;;;;;;;;;13.00;68.94;101471.38;4977735;28;20293;-63
2022/10/17 03:21:10;;;;;;;;;;;;;;;12.98;68.89;101480.22;4977644;28;20053;-63
2022/10/17 03:23:36;;;;;;;;;;;;;;;12.95;68.26;101483.75;4978088;28;19961;-63
2022/10/17 03:26:05;;;;;;;;;;;;;;;12.93;68.47;101487.34;4977640;28;19921;-63
2022/10/17 03:28:30;;;;;;;;;;;;;;;12.98;69.21;101491.63;4978175;28;19936;-63
2022/10/17 03:30:55;;;;;;;;;;;;;;;13.05;69.22;101476.59;4977118;28;20381;-63
2022/10/17 03:33:21;;;;;;;;;;;;;;;13.14;69.43;101465.03;4977891;28;19922;-63
2022/10/17 03:35:46;;;;;;;;;;;;;;;13.28;69.38;101468.34;4977975;28;20358;-63
2022/10/17 03:38:11;;;;;;;;;;;;;;;13.37;69.13;101464.72;4976342;28;19981;-63
2022/10/17 03:40:36;;;;;;;;;;;;;;;13.49;68.69;101465.38;4975220;28;20285;-63
2022/10/17 03:43:02;;;;;;;;;;;;;;;13.58;68.00;101472.28;4977051;28;19918;-64
2022/10/17 03:45:27;;;;;;;;;;;;;;;13.65;68.03;101470.41;4974799;28;20020;-63
2022/10/17 03:47:52;;;;;;;;;;;;;;;13.72;68.15;101466.75;4976483;28;20366;-63
2022/10/17 03:50:17;;;;;;;;;;;;;;;13.79;68.06;101463.09;4976254;28;19926;-63
2022/10/17 03:52:47;;;;;;;;;;;;;;;13.85;67.61;101470.06;4974449;28;19949;-63
2022/10/17 03:55:12;;;;;;;;;;;;;;;13.90;66.73;101478.78;4976059;28;20017;-63
2022/10/17 03:57:38;;;;;;;;;;;;;;;13.86;66.68;101480.59;4977507;28;20005;-63
2022/10/17 04:00:04;;;;;;;;;;;;;;;13.85;66.73;101473.56;4976892;28;20289;-63
2022/10/17 04:02:29;;;;;;;;;;;;;;;13.89;66.69;101472.63;4979620;28;19950;-63
2022/10/17 04:04:54;;;;;;;;;;;;;;;13.95;66.56;101483.06;4976811;28;19992;-62
2022/10/17 04:07:20;;;;;;;;;;;;;;;13.98;66.27;101498.00;4977102;28;20366;-63
2022/10/17 04:09:45;;;;;;;;;;;;;;;13.92;66.02;101504.25;4977141;28;19918;-63
2022/10/17 04:12:10;;;;;;;;;;;;;;;13.83;66.41;101496.50;4976468;28;20021;-62
2022/10/17 04:14:36;;;;;;;;;;;;;;;13.86;66.75;101503.50;4975022;28;19925;-62
2022/10/17 04:17:01;;;;;;;;;;;;;;;13.75;66.93;101512.47;4974521;28;20326;-63
2022/10/17 04:19:27;;;;;;;;;;;;;;;13.75;66.96;101504.53;4982115;28;19917;-62
2022/10/17 04:21:52;;;;;;;;;;;;;;;13.77;66.91;101505.41;4972856;28;19922;-61
2022/10/17 04:24:17;;;;;;;;;;;;;;;13.80;67.20;101505.38;4975444;28;21133;-62
2022/10/17 04:26:43;;;;;;;;;;;;;;;13.79;67.35;101502.72;4975373;28;20345;-62
2022/10/17 04:29:08;;;;;;;;;;;;;;;13.87;67.29;101508.75;4975868;28;19918;-62
2022/10/17 04:31:33;;;;;;;;;;;;;;;13.92;67.08;101503.38;4975405;28;19983;-62
2022/10/17 04:33:59;;;;;;;;;;;;;;;13.98;67.01;101506.78;4975899;28;19918;-62
2022/10/17 04:36:24;;;;;;;;;;;;;;;14.09;66.82;101497.81;4975591;28;19927;-62
2022/10/17 04:38:49;;;;;;;;;;;;;;;14.14;66.63;101495.94;4975912;28;19930;-62
2022/10/17 04:41:15;;;;;;;;;;;;;;;14.20;66.08;101501.09;4975760;28;19929;-62
2022/10/17 04:43:41;;;;;;;;;;;;;;;14.18;66.30;101497.63;4979034;28;19933;-62
2022/10/17 04:46:08;;;;;;;;;;;;;;;14.21;66.11;101506.38;4975521;28;19922;-63
2022/10/17 04:48:34;;;;;;;;;;;;;;;14.22;65.76;101512.53;4974663;28;19918;-62
2022/10/17 04:51:00;;;;;;;;;;;;;;;14.16;65.71;101513.53;4975473;28;19922;-62
2022/10/17 04:53:26;;;;;;;;;;;;;;;14.14;65.77;101514.44;4974381;28;19945;-63
2022/10/17 04:55:52;;;;;;;;;;;;;;;14.04;65.46;101513.72;4974204;28;20314;-63
2022/10/17 04:58:17;;;;;;;;;;;;;;;13.93;65.45;101511.28;4973593;28;20037;-63
2022/10/17 05:00:42;;;;;;;;;;;;;;;13.83;65.49;101530.84;4975212;28;20001;-63
2022/10/17 05:03:07;;;;;;;;;;;;;;;13.78;66.12;101527.41;4974300;28;20285;-62
2022/10/17 05:05:35;;;;;;;;;;;;;;;13.66;66.42;101528.47;4973843;28;19957;-63
2022/10/17 05:08:01;;;;;;;;;;;;;;;13.63;66.55;101527.66;4974447;28;20353;-63
2022/10/17 05:10:26;;;;;;;;;;;;;;;13.62;66.81;101523.28;4976341;28;19918;-62
2022/10/17 05:12:51;;;;;;;;;;;;;;;13.63;66.79;101522.38;4976009;28;19918;-63
2022/10/17 05:15:17;;;;;;;;;;;;;;;13.60;66.69;101525.06;4970136;28;20336;-62
2022/10/17 05:17:42;;;;;;;;;;;;;;;13.61;66.60;101518.91;4975774;28;19918;-62
2022/10/17 05:20:08;;;;;;;;;;;;;;;13.59;66.65;101518.03;4975123;28;19929;-61
2022/10/17 05:22:33;;;;;;;;;;;;;;;13.54;66.48;101524.25;4974879;28;19918;-62
2022/10/17 05:24:58;;;;;;;;;;;;;;;13.55;66.39;101523.34;4975348;28;20016;-63
2022/10/17 05:27:24;;;;;;;;;;;;;;;13.58;66.10;101513.66;4975254;28;20383;-62
2022/10/17 05:29:49;;;;;;;;;;;;;;;13.50;66.24;101508.50;4975073;28;20333;-62
2022/10/17 05:32:15;;;;;;;;;;;;;;;13.42;68.08;101513.03;4965550;28;20076;-63
2022/10/17 05:34:40;;;;;;;;;;;;;;;13.45;67.11;101527.06;4973059;28;20396;-63
2022/10/17 05:37:05;;;;;;;;;;;;;;;13.66;66.47;101525.84;4973594;28;20293;-62
2022/10/17 05:39:31;;;;;;;;;;;;;;;13.70;66.84;101526.66;4974921;28;19929;-62
2022/10/17 05:41:56;;;;;;;;;;;;;;;13.74;66.62;101529.22;4974919;28;19922;-62
2022/10/17 05:44:21;;;;;;;;;;;;;;;13.84;67.32;101524.66;4968893;28;19922;-62
2022/10/17 05:46:47;;;;;;;;;;;;;;;13.95;66.51;101520.06;4975471;28;20277;-62
2022/10/17 05:49:13;;;;;;;;;;;;;;;13.97;66.21;101528.84;4975280;28;19918;-61
2022/10/17 05:51:38;;;;;;;;;;;;;;;13.96;66.46;101535.03;4975018;28;19914;-61
2022/10/17 05:54:04;;;;;;;;;;;;;;;13.98;66.34;101541.16;4956226;28;20013;-62
2022/10/17 05:56:30;;;;;;;;;;;;;;;13.96;66.09;101553.53;4966871;28;19928;-62
2022/10/17 05:58:55;;;;;;;;;;;;;;;13.99;66.28;101550.81;4974879;28;19921;-63
2022/10/17 06:01:20;;;;;;;;;;;;;;;13.96;67.84;101552.63;4975440;28;19941;-62
2022/10/17 06:03:46;;;;;;;;;;;;;;;13.86;66.60;101556.34;4981795;28;20388;-63
2022/10/17 06:06:12;;;;;;;;;;;;;;;13.95;66.04;101551.75;4983629;28;19922;-63
2022/10/17 06:08:37;;;;;;;;;;;;;;;13.91;66.54;101544.78;4975231;28;20373;-62
2022/10/17 06:11:03;;;;;;;;;;;;;;;13.96;66.89;101536.78;4975092;28;19953;-62
2022/10/17 06:13:29;;;;;;;;;;;;;;;14.11;66.93;101547.09;4975116;28;20012;-62
2022/10/17 06:15:54;;;;;;;;;;;;;;;14.32;66.72;101551.09;4974019;28;19965;-62
2022/10/17 06:18:20;;;;;;;;;;;;;;;14.43;66.48;101548.25;4974486;28;19964;-62
2022/10/17 06:20:45;;;;;;;;;;;;;;;14.70;65.75;101546.91;4971798;28;19926;-62
2022/10/17 06:23:10;;;;;;;;;;;;;;;14.89;65.29;101550.91;4975089;28;20277;-63
2022/10/17 06:25:36;;;;;;;;;;;;;;;14.92;65.17;101558.78;4973160;28;19973;-62
2022/10/17 06:28:01;;;;;;;;;;;;;;;15.17;64.86;101563.56;4973457;28;19929;-63
2022/10/17 06:30:26;;;;;;;;;;;;;;;15.27;64.83;101562.44;4974248;28;19922;-61
2022/10/17 06:32:52;;;;;;;;;;;;;;;15.38;64.46;101564.84;4971240;28;19969;-62
2022/10/17 06:35:18;;;;;;;;;;;;;;;15.53;64.13;101562.72;4973812;28;19918;-64
2022/10/17 06:37:43;;;;;;;;;;;;;;;15.61;63.60;101574.91;4973589;28;19918;-63
2022/10/17 06:40:10;;;;;;;;;;;;;;;15.53;63.29;101572.44;4975923;28;19917;-62
2022/10/17 06:42:36;;;;;;;;;;;;;;;15.48;63.42;101585.78;4975338;28;20370;-63
2022/10/17 06:45:01;;;;;;;;;;;;;;;15.49;63.83;101599.91;4971522;28;20009;-63
2022/10/17 06:47:26;;;;;;;;;;;;;;;15.50;63.69;101601.63;4973422;28;19949;-63
2022/10/17 06:49:51;;;;;;;;;;;;;;;15.54;64.00;101600.66;4973542;28;19918;-62
2022/10/17 06:52:17;;;;;;;;;;;;;;;15.52;64.34;101602.50;4972662;28;19972;-62
2022/10/17 06:54:43;;;;;;;;;;;;;;;15.73;64.39;101598.50;4973782;28;19922;-62
2022/10/17 06:57:08;;;;;;;;;;;;;;;15.96;64.33;101600.59;4973733;28;19965;-63
2022/10/17 06:59:33;;;;;;;;;;;;;;;16.16;64.41;101595.66;4973462;28;20275;-63
2022/10/17 07:02:01;;;;;;;;;;;;;;;16.36;64.40;101595.16;4973060;28;20024;-63
2022/10/17 07:04:27;;;;;;;;;;;;;;;16.51;63.42;101600.03;4973425;28;19918;-63
2022/10/17 07:06:52;;;;;;;;;;;;;;;16.63;62.88;101606.78;4973929;28;19926;-62
2022/10/17 07:09:17;;;;;;;;;;;;;;;16.75;63.17;101603.81;4973644;28;19918;-62
2022/10/17 07:11:43;;;;;;;;;;;;;;;16.83;62.91;101602.75;4973292;28;19961;-62
2022/10/17 07:14:08;;;;;;;;;;;;;;;16.85;62.76;101600.94;4973941;28;19914;-63
2022/10/17 07:16:34;;;;;;;;;;;;;;;16.79;62.47;101604.59;4974603;28;19922;-63
2022/10/17 07:18:59;;;;;;;;;;;;;;;16.71;63.26;101604.78;4976998;28;19922;-61
2022/10/17 07:21:24;;;;;;;;;;;;;;;16.67;63.49;101599.59;4977256;28;20323;-62
2022/10/17 07:23:50;;;;;;;;;;;;;;;16.74;62.74;101603.88;4977108;28;19945;-61
2022/10/17 07:26:16;;;;;;;;;;;;;;;16.90;62.71;101609.63;4972422;28;19944;-62
2022/10/17 07:28:42;;;;;;;;;;;;;;;17.09;62.29;101607.31;4983450;28;20009;-63
2022/10/17 07:31:13;;;;;;;;;;;;;;;17.32;62.12;101604.84;4977162;28;19918;-62
2022/10/17 07:33:39;;;;;;;;;;;;;;;17.58;61.42;101613.78;4976981;28;19918;-62
2022/10/17 07:36:04;;;;;;;;;;;;;;;17.62;61.28;101616.31;4977299;28;19926;-62
2022/10/17 07:38:30;;;;;;;;;;;;;;;17.73;60.94;101618.63;4976891;28;20310;-63
2022/10/17 07:40:56;;;;;;;;;;;;;;;17.80;61.61;101614.91;4977455;28;19972;-62
2022/10/17 07:43:22;;;;;;;;;;;;;;;17.86;62.00;101604.03;4976704;28;19918;-62
2022/10/17 07:45:47;;;;;;;;;;;;;;;17.89;61.93;101600.44;4977574;28;19945;-63
2022/10/17 07:48:13;;;;;;;;;;;;;;;17.93;61.78;101594.97;4976834;28;19922;-62
2022/10/17 07:50:38;;;;;;;;;;;;;;;17.98;61.90;101598.31;4976296;28;19928;-63
2022/10/17 07:53:03;;;;;;;;;;;;;;;18.10;61.75;101602.38;4976737;28;20378;-63
2022/10/17 07:55:28;;;;;;;;;;;;;;;18.22;62.03;101601.94;4976913;28;19922;-63
2022/10/17 07:57:54;;;;;;;;;;;;;;;18.30;61.49;101601.69;4977024;28;19961;-62
2022/10/17 08:00:19;;;;;;;;;;;;;;;18.35;61.87;101610.41;4976382;28;19924;-62
2022/10/17 08:02:44;;;;;;;;;;;;;;;18.37;61.79;101602.34;4976908;28;19934;-63
2022/10/17 08:05:10;;;;;;;;;;;;;;;18.42;61.90;101603.91;4976273;28;19921;-63
2022/10/17 08:07:35;;;;;;;;;;;;;;;18.50;61.92;101602.78;4976271;28;20251;-62
2022/10/17 08:10:00;;;;;;;;;;;;;;;18.56;62.41;101592.81;4976187;28;19977;-63
2022/10/17 08:12:26;;;;;;;;;;;;;;;18.54;62.23;101588.44;4976044;28;19926;-63
2022/10/17 08:14:51;;;;;;;;;;;;;;;18.64;62.06;101592.53;4976210;28;19976;-63
2022/10/17 08:17:16;;;;;;;;;;;;;;;18.73;62.52;101592.22;4976507;28;20034;-63
2022/10/17 08:19:42;;;;;;;;;;;;;;;18.76;62.54;101592.13;4976472;28;19976;-63
2022/10/17 08:22:07;;;;;;;;;;;;;;;18.89;62.02;101590.72;4975877;28;19922;-63
2022/10/17 08:24:32;;;;;;;;;;;;;;;19.13;61.40;101596.06;4976805;28;19918;-62
2022/10/17 08:26:59;;;;;;;;;;;;;;;19.33;60.83;101597.97;4977080;28;19914;-63
2022/10/17 08:29:25;;;;;;;;;;;;;;;19.52;60.36;101596.31;4974858;28;19921;-61
2022/10/17 08:31:51;;;;;;;;;;;;;;;19.68;59.82;101600.16;4975982;28;19982;-62
2022/10/17 08:34:16;;;;;;;;;;;;;;;19.83;59.67;101603.13;4975486;28;19933;-63
2022/10/17 08:36:42;;;;;;;;;;;;;;;20.04;59.58;101602.22;4976244;28;20008;-62
2022/10/17 08:39:07;;;;;;;;;;;;;;;20.37;58.31;101594.59;4976142;28;19918;-63
2022/10/17 08:41:32;;;;;;;;;;;;;;;20.57;57.84;101590.22;4976257;28;19917;-63
2022/10/17 08:44:14;;;;;;;;;;;;;;;20.62;57.96;101586.38;4975867;28;19922;-63
2022/10/17 08:46:41;;;;;;;;;;;;;;;20.73;57.77;101583.25;4974715;28;19922;-63
2022/10/17 08:49:11;;;;;;;;;;;;;;;20.79;57.16;101576.78;4974812;28;19926;-63
2022/10/17 08:51:43;;;;;;;;;;;;;;;20.86;56.80;101575.53;4975889;28;19936;-63
2022/10/17 08:54:13;;;;;;;;;;;;;;;20.88;56.53;101569.19;4975544;28;19921;-63
2022/10/17 08:56:41;;;;;;;;;;;;;;;20.87;56.94;101574.63;4969702;28;20370;-64
2022/10/17 08:59:15;;;;;;;;;;;;;;;20.78;56.80;101573.22;4975457;28;20384;-63
2022/10/17 09:01:41;;;;;;;;;;;;;;;20.87;56.52;101564.81;4969847;28;19926;-63
2022/10/17 09:04:09;;;;;;;;;;;;;;;20.86;56.76;101563.03;4976444;28;19918;-63
2022/10/17 09:06:38;;;;;;;;;;;;;;;20.97;56.72;101562.56;4976017;28;20293;-63
2022/10/17 09:09:03;;;;;;;;;;;;;;;21.03;56.61;101556.09;4975600;28;19921;-62
2022/10/17 09:11:47;;;;;;;;;;;;;;;21.09;56.77;101561.13;4975083;28;20285;-63
2022/10/17 09:14:15;;;;;;;;;;;;;;;21.14;56.34;101562.66;4975878;28;20392;-63
2022/10/17 09:16:46;;;;;;;;;;;;;;;21.16;56.15;101566.13;4974939;28;19914;-64
2022/10/17 09:19:11;;;;;;;;;;;;;;;21.11;56.31;101561.94;4973882;28;19986;-63
2022/10/17 09:21:50;;;;;;;;;;;;;;;21.26;55.96;101563.00;4975129;28;19929;-63
2022/10/17 09:24:19;;;;;;;;;;;;;;;21.38;55.65;101574.03;4973609;28;20332;-64
2022/10/17 09:26:45;;;;;;;;;;;;;;;21.50;55.61;101580.56;4975381;28;20004;-62
2022/10/17 09:29:24;;;;;;;;;;;;;;;21.58;55.78;101566.81;4974914;28;20028;-64
2022/10/17 09:32:01;;;;;;;;;;;;;;;21.67;55.44;101573.56;4968770;28;20381;-65
2022/10/17 09:34:28;;;;;;;;;;;;;;;21.70;55.54;101579.59;4974950;28;19957;-63
2022/10/17 09:36:53;;;;;;;;;;;;;;;21.85;55.20;101576.16;4975136;28;19921;-63
2022/10/17 09:39:21;;;;;;;;;;;;;;;21.99;54.81;101579.97;4974346;28;19926;-63
2022/10/17 09:41:54;;;;;;;;;;;;;;;22.19;54.57;101582.53;4974806;28;20328;-64
2022/10/17 09:44:22;;;;;;;;;;;;;;;22.43;53.95;101575.03;4974656;28;21470;-63
2022/10/17 09:47:11;;;;;;;;;;;;;;;22.43;54.02;101569.69;4974579;28;19949;-64
2022/10/17 09:49:38;;;;;;;;;;;;;;;22.26;53.99;101578.59;4971333;28;20437;-63
2022/10/17 09:52:05;;;;;;;;;;;;;;;22.26;54.61;101572.34;4974393;28;20294;-63
2022/10/17 09:54:50;;;;;;;;;;;;;;;22.32;54.34;101566.69;4974807;28;19918;-63
2022/10/17 09:57:16;;;;;;;;;;;;;;;22.31;54.21;101557.81;4974607;28;19925;-64
2022/10/17 09:59:43;;;;;;;;;;;;;;;22.44;54.04;101559.84;4974082;28;19918;-63
2022/10/17 10:02:11;;;;;;;;;;;;;;;22.70;53.71;101556.66;4975077;28;20366;-62
2022/10/17 10:04:55;;;;;;;;;;;;;;;22.94;52.64;101558.94;4974563;28;19925;-63
2022/10/17 10:07:21;;;;;;;;;;;;;;;22.91;52.59;101548.44;4974020;28;19918;-63
2022/10/17 10:09:47;;;;;;;;;;;;;;;22.79;52.88;101560.63;4973573;28;19930;-63
2022/10/17 10:12:26;;;;;;;;;;;;;;;22.65;53.12;101547.97;4974031;28;20016;-64
2022/10/17 10:14:52;;;;;;;;;;;;;;;22.67;53.05;101543.41;4974353;28;19918;-63
2022/10/17 10:17:36;;;;;;;;;;;;;;;22.72;53.11;101544.03;4974272;28;19929;-63
2022/10/17 10:20:21;;;;;;;;;;;;;;;22.66;53.46;101540.78;4973768;28;20390;-63
2022/10/17 10:23:03;;;;;;;;;;;;;;;22.63;53.19;101539.16;4966626;28;19918;-64
2022/10/17 10:25:28;;;;;;;;;;;;;;;22.79;53.15;101540.06;4971286;28;19918;-62
2022/10/17 10:27:54;;;;;;;;;;;;;;;22.76;52.94;101534.88;4972494;28;20287;-62
2022/10/17 10:30:22;;;;;;;;;;;;;;;22.76;52.86;101528.66;4973955;28;20013;-63
2022/10/17 10:32:48;;;;;;;;;;;;;;;22.86;52.63;101524.50;4974116;28;20373;-63
2022/10/17 10:35:29;;;;;;;;;;;;;;;22.86;53.01;101525.41;4974258;28;19918;-64
2022/10/17 10:37:56;;;;;;;;;;;;;;;22.82;53.16;101526.50;4973364;28;19918;-64
2022/10/17 10:40:25;;;;;;;;;;;;;;;22.95;53.00;101528.53;4973798;28;19961;-64
2022/10/17 10:42:52;;;;;;;;;;;;;;;23.00;52.27;101537.19;4974224;28;19918;-63
2022/10/17 10:45:28;;;;;;;;;;;;;;;23.17;51.79;101531.75;4973887;28;20374;-64
2022/10/17 10:47:54;;;;;;;;;;;;;;;23.36;51.01;101524.38;4974043;28;19961;-64
2022/10/17 10:50:30;;;;;;;;;;;;;;;23.58;50.79;101525.84;4973576;28;21538;-64
2022/10/17 10:53:04;;;;;;;;;;;;;;;23.65;50.62;101529.88;4970269;28;20270;-64
2022/10/17 10:55:31;;;;;;;;;;;;;;;23.83;50.57;101525.31;4978685;28;20008;-64
2022/10/17 10:57:59;;;;;;;;;;;;;;;24.17;49.94;101524.13;4984464;28;19922;-62
2022/10/17 11:00:26;;;;;;;;;;;;;;;24.39;49.25;101526.41;4977892;28;20016;-64
2022/10/17 11:03:00;;;;;;;;;;;;;;;24.61;49.13;101522.38;4977619;28;19925;-63
2022/10/17 11:05:46;;;;;;;;;;;;;;;24.65;48.80;101511.34;4979659;28;20103;-64
2022/10/17 11:08:30;;;;;;;;;;;;;;;24.68;48.67;101508.47;4973296;28;19918;-64
2022/10/17 11:11:03;;;;;;;;;;;;;;;24.64;48.85;101503.41;4978727;28;20008;-64
2022/10/17 11:13:35;;;;;;;;;;;;;;;24.61;49.06;101499.06;4977141;28;19924;-63
2022/10/17 11:16:07;;;;;;;;;;;;;;;24.66;49.09;101499.66;4977282;28;20420;-63
2022/10/17 11:18:34;;;;;;;;;;;;;;;24.75;49.04;101495.53;4978604;28;19932;-63
2022/10/17 11:21:06;;;;;;;;;;;;;;;24.82;48.73;101500.41;4976789;28;20305;-63
2022/10/17 11:23:36;;;;;;;;;;;;;;;24.81;48.37;101498.66;4977162;28;20008;-63
2022/10/17 11:26:04;;;;;;;;;;;;;;;24.77;48.56;101494.44;4976901;28;20333;-63
2022/10/17 11:28:29;;;;;;;;;;;;;;;24.59;49.09;101492.94;4975964;28;19949;-63
2022/10/17 11:30:57;;;;;;;;;;;;;;;24.48;49.28;101490.91;4966411;28;19984;-64
2022/10/17 11:33:26;;;;;;;;;;;;;;;24.44;49.54;101470.59;4977216;28;20017;-64
2022/10/17 11:35:54;;;;;;;;;;;;;;;24.38;49.60;101464.69;4977548;28;20017;-64
2022/10/17 11:38:49;;;;;;;;;;;;;;;24.43;49.64;101462.63;4969715;28;19944;-63
2022/10/17 11:41:17;;;;;;;;;;;;;;;24.42;49.72;101461.78;4965850;28;20354;-63
2022/10/17 11:43:52;;;;;;;;;;;;;;;24.37;49.79;101452.22;4976830;28;19918;-64
2022/10/17 11:46:22;;;;;;;;;;;;;;;25.54;47.77;101451.81;4976206;28;19926;-63
2022/10/17 11:49:00;;;;;;;;;;;;;;;26.22;46.10;101465.06;4977056;28;19918;-64
2022/10/17 11:51:27;;;;;;;;;;;;;;;25.38;47.51;101462.75;4975949;28;19918;-63
2022/10/17 11:54:02;;;;;;;;;;;;;;;24.70;49.28;101460.88;4976074;28;19925;-63
2022/10/17 11:56:36;;;;;;;;;;;;;;;24.67;49.86;101454.84;4975864;28;20017;-63
2022/10/17 11:59:23;;;;;;;;;;;;;;;24.70;49.74;101460.88;4976688;28;20374;-61
2022/10/17 12:01:54;;;;;;;;;;;;;;;24.64;50.17;101453.19;4971958;28;19964;-64
2022/10/17 12:04:43;;;;;;;;;;;;;;;24.56;50.31;101447.47;4973150;28;19922;-63
2022/10/17 12:07:25;;;;;;;;;;;;;;;24.55;50.25;101451.13;4976196;28;19937;-62
2022/10/17 12:09:54;;;;;;;;;;;;;;;24.38;50.62;101441.44;4976748;28;19949;-63
2022/10/17 12:12:26;;;;;;;;;;;;;;;24.35;50.71;101444.28;4977155;28;19921;-63
2022/10/17 12:14:52;;;;;;;;;;;;;;;24.34;51.13;101446.09;4975787;28;19920;-63
2022/10/17 12:17:26;;;;;;;;;;;;;;;24.33;51.33;101447.03;4976703;28;20016;-63
2022/10/17 12:19:52;;;;;;;;;;;;;;;24.30;51.25;101441.88;4977258;28;20004;-63
2022/10/17 12:22:27;;;;;;;;;;;;;;;24.30;51.24;101439.19;4977095;28;19960;-63
2022/10/17 12:25:02;;;;;;;;;;;;;;;24.30;51.34;101439.19;4976207;28;19941;-64
2022/10/17 12:27:33;;;;;;;;;;;;;;;24.28;51.54;101440.25;4976708;28;20021;-64
2022/10/17 12:30:00;;;;;;;;;;;;;;;24.28;52.53;101435.72;4976726;28;19914;-64
2022/10/17 12:32:26;;;;;;;;;;;;;;;24.28;52.36;101434.88;4972549;28;19918;-64
2022/10/17 12:34:52;;;;;;;;;;;;;;;24.27;52.73;101438.53;4956248;29;20396;-64
2022/10/17 12:37:37;;;;;;;;;;;;;;;24.22;52.73;101436.13;4955272;28;19914;-64
2022/10/17 12:40:02;;;;;;;;;;;;;;;24.20;52.10;101429.13;4970057;28;19964;-64
2022/10/17 12:42:28;;;;;;;;;;;;;;;24.14;52.77;101429.47;4976739;28;19950;-64